Time;durP1;ratioP1;P1;durP2;ratioP2;P2;SDS_P1;SDS_P2;PMS_P1;PMS_P2;Temp;Humidity;BMP_temperature;BMP_pressure;BME280_temperature;BME280_humidity;BME280_pressure;Samples;Min_cycle;Max_cycle;Signal;HPM_P1;HPM_P2
2024/02/14 00:00:17;;;;;;;9.88;4.45;;;;;;;-11.35;74.59;100002.84;4974860;28;20042;-61
2024/02/14 00:02:49;;;;;;;8.73;4.95;;;;;;;-11.42;75.33;100001.50;4990900;28;20050;-57
2024/02/14 00:05:16;;;;;;;6.10;3.60;;;;;;;-11.39;74.65;99996.22;4992057;28;20133;-58
2024/02/14 00:07:42;;;;;;;8.23;4.40;;;;;;;-11.41;74.81;99994.66;5007235;28;20050;-59
2024/02/14 00:10:09;;;;;;;8.13;3.72;;;;;;;-11.52;75.00;99993.50;4992424;28;20132;-59
2024/02/14 00:12:41;;;;;;;6.32;3.03;;;;;;;-11.57;75.06;99995.47;4992163;28;20578;-59
2024/02/14 00:15:08;;;;;;;8.45;4.57;;;;;;;-11.55;75.36;99993.69;4992055;28;20072;-59
2024/02/14 00:17:34;;;;;;;11.27;5.55;;;;;;;-11.58;74.98;99995.56;4974561;28;20104;-55
2024/02/14 00:20:01;;;;;;;8.60;4.50;;;;;;;-11.60;75.48;99997.38;4974736;28;20081;-59
2024/02/14 00:22:31;;;;;;;8.10;3.83;;;;;;;-11.71;75.12;99991.09;4992364;28;20377;-58
2024/02/14 00:24:56;;;;;;;7.78;4.45;;;;;;;-11.69;76.05;99998.69;4990663;28;20177;-60
2024/02/14 00:27:22;;;;;;;9.68;5.22;;;;;;;-11.74;75.62;99993.81;4990523;28;20054;-59
2024/02/14 00:29:48;;;;;;;6.63;3.88;;;;;;;-11.81;75.53;100000.16;4991999;28;20043;-58
2024/02/14 00:32:14;;;;;;;8.57;3.65;;;;;;;-11.88;75.54;99998.88;4992051;28;20042;-59
2024/02/14 00:34:46;;;;;;;8.32;4.72;;;;;;;-11.82;76.59;99998.53;4990241;28;20054;-58
2024/02/14 00:37:11;;;;;;;12.55;4.78;;;;;;;-11.88;75.76;99998.88;4991825;28;20051;-59
2024/02/14 00:39:37;;;;;;;5.30;3.90;;;;;;;-11.88;76.61;99993.75;4990801;28;20046;-60
2024/02/14 00:42:03;;;;;;;7.38;3.92;;;;;;;-11.83;76.08;99998.59;4994195;28;20042;-58
2024/02/14 00:44:29;;;;;;;7.35;4.28;;;;;;;-11.87;75.49;99997.97;4994453;28;20035;-60
2024/02/14 00:47:02;;;;;;;6.28;3.83;;;;;;;-11.88;75.98;99990.34;4995571;28;20042;-58
2024/02/14 00:49:28;;;;;;;8.32;5.28;;;;;;;-11.84;76.31;100012.28;4994381;28;20053;-59
2024/02/14 00:51:55;;;;;;;7.55;3.47;;;;;;;-11.87;76.21;100008.19;4994288;28;20417;-59
2024/02/14 00:54:21;;;;;;;8.88;4.10;;;;;;;-11.82;75.43;99995.13;5010668;28;20049;-60
2024/02/14 00:56:46;;;;;;;7.53;4.63;;;;;;;-11.85;76.40;100003.81;5010726;28;20038;-60
2024/02/14 00:59:12;;;;;;;9.95;4.68;;;;;;;-11.83;75.27;100004.53;4994325;28;20452;-60
2024/02/14 01:01:38;;;;;;;7.60;4.38;;;;;;;-11.84;76.34;100014.84;4995666;28;20050;-59
2024/02/14 01:04:04;;;;;;;12.93;5.00;;;;;;;-11.83;75.83;100016.50;5010481;28;20441;-59
2024/02/14 01:06:30;;;;;;;6.90;4.78;;;;;;;-11.90;76.00;100019.41;4994125;28;20049;-59
2024/02/14 01:08:56;;;;;;;13.02;6.00;;;;;;;-11.87;75.36;100015.03;4994227;28;20042;-59
2024/02/14 01:11:22;;;;;;;10.23;5.30;;;;;;;-11.82;75.99;100018.13;4995543;28;20045;-60
2024/02/14 01:13:47;;;;;;;10.27;4.85;;;;;;;-11.79;75.43;100013.69;5010482;28;20520;-59
2024/02/14 01:16:14;;;;;;;10.60;4.45;;;;;;;-11.82;74.78;100018.13;4982707;28;20046;-58
2024/02/14 01:18:40;;;;;;;11.02;5.22;;;;;;;-11.87;75.73;100017.59;4990599;28;20125;-59
2024/02/14 01:21:06;;;;;;;8.73;5.13;;;;;;;-11.90;75.65;100016.84;4978123;28;20090;-59
2024/02/14 01:23:33;;;;;;;8.80;4.35;;;;;;;-11.85;75.44;100015.75;4975973;28;20106;-59
2024/02/14 01:25:58;;;;;;;3.88;2.80;;;;;;;-11.92;75.72;100015.25;4975767;28;20038;-58
2024/02/14 01:28:25;;;;;;;16.52;6.30;;;;;;;-11.92;75.77;100013.53;4975843;28;20522;-58
2024/02/14 01:30:51;;;;;;;9.80;5.57;;;;;;;-11.91;75.65;100016.91;4975765;28;20047;-59
2024/02/14 01:33:17;;;;;;;23.27;9.15;;;;;;;-11.88;74.87;100014.22;4976293;28;20053;-59
2024/02/14 01:35:42;;;;;;;31.88;13.45;;;;;;;-11.90;75.48;100021.94;4995195;28;20452;-60
2024/02/14 01:38:08;;;;;;;21.85;8.05;;;;;;;-12.00;74.85;100032.72;4994024;28;20057;-59
2024/02/14 01:40:34;;;;;;;25.63;10.30;;;;;;;-12.02;76.19;100037.94;4978210;28;20420;-58
2024/02/14 01:43:04;;;;;;;25.50;10.93;;;;;;;-11.98;75.46;100030.91;4995542;28;20050;-59
2024/02/14 01:45:30;;;;;;;15.27;8.45;;;;;;;-12.05;75.83;100042.38;4995307;28;20042;-59
2024/02/14 01:48:09;;;;;;;10.45;6.30;;;;;;;-12.11;76.23;100040.13;4994895;28;20046;-62
2024/02/14 01:50:35;;;;;;;15.75;7.50;;;;;;;-12.15;75.89;100035.13;4993399;28;20085;-60
2024/02/14 01:53:01;;;;;;;16.45;8.82;;;;;;;-12.23;75.33;100039.84;4992936;28;20054;-59
2024/02/14 01:55:28;;;;;;;11.32;7.65;;;;;;;-12.15;75.58;100036.88;4977561;28;20038;-59
2024/02/14 01:57:55;;;;;;;17.75;9.85;;;;;;;-12.15;75.79;100035.13;5009600;28;20047;-58
2024/02/14 02:00:21;;;;;;;22.05;10.30;;;;;;;-12.14;75.66;100041.09;4994618;28;20062;-60
2024/02/14 02:02:47;;;;;;;16.10;9.40;;;;;;;-12.15;75.02;100045.38;4994516;28;20054;-58
2024/02/14 02:05:18;;;;;;;21.60;9.65;;;;;;;-12.11;75.65;100047.78;4993184;28;20050;-59
2024/02/14 02:07:48;;;;;;;19.05;8.70;;;;;;;-12.08;75.80;100055.31;4994285;28;20062;-60
2024/02/14 02:10:15;;;;;;;16.05;8.77;;;;;;;-12.20;75.24;100049.91;4993020;28;20045;-59
2024/02/14 02:13:01;;;;;;;18.30;10.35;;;;;;;-12.12;75.48;100064.84;5006651;28;20042;-60
2024/02/14 02:15:46;;;;;;;24.25;11.02;;;;;;;-12.09;74.76;100057.00;4979670;28;20050;-58
2024/02/14 02:18:32;;;;;;;17.45;9.60;;;;;;;-12.11;74.29;100061.41;4994182;28;20204;-58
2024/02/14 02:21:23;;;;;;;15.30;8.88;;;;;;;-12.02;75.15;100060.09;4994023;28;20054;-59
2024/02/14 02:23:51;;;;;;;12.30;6.43;;;;;;;-12.00;75.16;100061.69;4993344;28;20052;-58
2024/02/14 02:26:16;;;;;;;12.98;7.15;;;;;;;-12.06;73.82;100058.59;4994361;28;20444;-61
2024/02/14 02:29:02;;;;;;;14.77;7.72;;;;;;;-12.09;74.45;100066.41;4979457;28;20200;-57
2024/02/14 02:31:29;;;;;;;17.67;8.23;;;;;;;-12.04;74.97;100069.56;5009007;28;20127;-60
2024/02/14 02:33:54;;;;;;;12.77;6.63;;;;;;;-12.10;73.79;100069.88;4994263;28;20528;-59
2024/02/14 02:36:23;;;;;;;17.55;6.45;;;;;;;-12.13;74.24;100061.47;4993964;28;20042;-57
2024/02/14 02:39:09;;;;;;;13.68;7.70;;;;;;;-12.13;74.07;100075.97;5006410;28;20061;-57
2024/02/14 02:41:57;;;;;;;12.07;6.72;;;;;;;-12.19;74.49;100077.09;4993563;28;20428;-59
2024/02/14 02:44:54;;;;;;;13.40;6.68;;;;;;;-12.22;74.35;100071.31;5004899;28;20424;-60
2024/02/14 02:47:56;;;;;;;11.38;5.60;;;;;;;-12.28;74.06;100075.00;4993199;28;20460;-57
2024/02/14 02:50:44;;;;;;;9.65;5.40;;;;;;;-12.25;74.10;100074.84;4992561;28;20141;-58
2024/02/14 02:53:28;;;;;;;8.38;4.35;;;;;;;-12.40;74.17;100065.38;4973352;28;20053;-59
2024/02/14 02:56:14;;;;;;;11.27;3.90;;;;;;;-12.31;74.18;100080.25;4973811;28;20065;-60
2024/02/14 02:58:40;;;;;;;10.10;3.83;;;;;;;-12.42;74.34;100091.00;4974777;28;20406;-58
2024/02/14 03:01:09;;;;;;;12.15;5.68;;;;;;;-12.42;75.11;100090.19;4974726;28;20039;-59
2024/02/14 03:03:55;;;;;;;9.85;4.03;;;;;;;-12.36;75.26;100087.31;4959173;28;20069;-58
2024/02/14 03:06:43;;;;;;;7.47;4.30;;;;;;;-12.33;74.11;100088.91;4986798;28;20513;-57
2024/02/14 03:09:22;;;;;;;11.57;5.38;;;;;;;-12.39;74.25;100088.28;4989221;28;20065;-59
2024/02/14 03:12:09;;;;;;;8.02;4.20;;;;;;;-12.44;74.21;100095.38;4978275;28;20548;-59
2024/02/14 03:14:55;;;;;;;11.35;5.03;;;;;;;-12.48;74.01;100091.28;4992891;28;20058;-58
2024/02/14 03:17:32;;;;;;;6.45;4.07;;;;;;;-12.52;75.12;100091.53;4992621;28;20046;-59
2024/02/14 03:19:58;;;;;;;8.85;5.30;;;;;;;-12.51;73.88;100101.66;4991453;28;20423;-60
2024/02/14 03:22:23;;;;;;;6.10;3.72;;;;;;;-12.55;74.69;100099.34;4992630;28;20074;-59
2024/02/14 03:24:49;;;;;;;8.63;4.43;;;;;;;-12.56;74.68;100110.44;4992719;28;20046;-61
2024/02/14 03:27:17;;;;;;;8.65;4.53;;;;;;;-12.68;75.41;100096.53;4991143;28;20396;-58
2024/02/14 03:29:43;;;;;;;7.18;4.15;;;;;;;-12.61;75.08;100095.34;5007548;28;20088;-58
2024/02/14 03:32:09;;;;;;;6.22;3.90;;;;;;;-12.74;75.11;100112.97;4991254;28;20042;-59
2024/02/14 03:34:35;;;;;;;6.20;3.58;;;;;;;-12.81;75.50;100094.56;4992624;28;20056;-61
2024/02/14 03:37:02;;;;;;;12.70;4.20;;;;;;;-12.72;75.26;100116.28;4992560;28;20066;-59
2024/02/14 03:39:31;;;;;;;10.18;4.20;;;;;;;-12.76;75.52;100111.38;5007590;28;20042;-60
2024/02/14 03:41:58;;;;;;;6.63;3.75;;;;;;;-12.71;75.78;100104.34;4991225;28;20054;-57
2024/02/14 03:44:24;;;;;;;7.57;3.90;;;;;;;-12.70;74.65;100113.66;4992867;28;20129;-58
2024/02/14 03:46:50;;;;;;;7.25;4.53;;;;;;;-12.70;74.81;100114.50;4991242;28;20061;-58
2024/02/14 03:49:16;;;;;;;8.60;4.57;;;;;;;-12.69;74.65;100107.66;4991289;28;20042;-60
2024/02/14 03:51:42;;;;;;;7.32;3.53;;;;;;;-12.71;74.51;100112.81;4993086;28;20046;-59
2024/02/14 03:54:08;;;;;;;8.15;5.10;;;;;;;-12.75;74.90;100111.31;4992140;28;20049;-59
2024/02/14 03:56:34;;;;;;;7.03;4.03;;;;;;;-12.80;75.61;100120.91;5008645;28;20050;-59
2024/02/14 03:58:59;;;;;;;8.55;5.15;;;;;;;-12.77;74.43;100122.50;4993581;28;20046;-57
2024/02/14 04:01:25;;;;;;;9.35;5.03;;;;;;;-12.86;75.12;100116.91;4993415;28;20035;-62
2024/02/14 04:03:51;;;;;;;8.55;4.10;;;;;;;-12.86;75.77;100127.13;4992672;28;20409;-56
2024/02/14 04:06:17;;;;;;;5.15;3.58;;;;;;;-12.86;75.10;100119.47;4992340;28;20109;-61
2024/02/14 04:08:43;;;;;;;5.53;2.83;;;;;;;-13.00;74.94;100114.16;4992206;28;20626;-58
2024/02/14 04:11:09;;;;;;;9.20;4.15;;;;;;;-13.03;75.34;100119.41;4992374;28;20133;-58
2024/02/14 04:13:35;;;;;;;8.68;4.30;;;;;;;-13.00;74.55;100118.44;4990892;28;20181;-59
2024/02/14 04:16:01;;;;;;;11.52;5.60;;;;;;;-13.04;74.10;100116.03;4991473;28;20121;-59
2024/02/14 04:18:36;;;;;;;4.95;3.78;;;;;;;-13.08;74.57;100121.34;4992099;28;20507;-58
2024/02/14 04:21:03;;;;;;;8.38;4.70;;;;;;;-13.12;75.21;100123.19;4990787;28;20523;-61
2024/02/14 04:23:29;;;;;;;7.80;4.78;;;;;;;-13.14;74.74;100121.63;5007088;28;20080;-60
2024/02/14 04:25:55;;;;;;;11.43;5.00;;;;;;;-13.15;75.18;100122.50;4992229;28;20066;-61
2024/02/14 04:28:21;;;;;;;11.30;5.75;;;;;;;-13.16;75.09;100137.00;4990725;28;20519;-59
2024/02/14 04:30:48;;;;;;;6.95;3.70;;;;;;;-13.15;74.48;100135.28;5006927;28;20080;-60
2024/02/14 04:33:30;;;;;;;10.88;4.88;;;;;;;-13.18;75.46;100146.44;4990358;28;20475;-56
2024/02/14 04:35:56;;;;;;;9.40;4.22;;;;;;;-13.28;74.14;100130.75;4991673;28;20050;-59
2024/02/14 04:38:22;;;;;;;9.65;4.38;;;;;;;-13.35;75.38;100137.03;4990767;28;20046;-59
2024/02/14 04:40:48;;;;;;;7.18;4.70;;;;;;;-13.36;75.95;100145.56;4986296;28;20035;-58
2024/02/14 04:43:13;;;;;;;8.60;4.53;;;;;;;-13.40;76.14;100138.94;5006326;28;20058;-59
2024/02/14 04:45:39;;;;;;;9.13;4.85;;;;;;;-13.36;75.36;100134.53;4990873;28;20411;-58
2024/02/14 04:48:11;;;;;;;10.10;5.10;;;;;;;-13.30;75.05;100152.13;4990572;28;20184;-60
2024/02/14 04:50:37;;;;;;;6.95;4.00;;;;;;;-13.40;75.58;100149.16;4971313;28;20176;-58
2024/02/14 04:53:03;;;;;;;7.90;5.07;;;;;;;-13.41;76.38;100149.22;4987986;28;20047;-59
2024/02/14 04:55:29;;;;;;;5.85;4.25;;;;;;;-13.45;74.77;100148.53;4972189;28;20463;-60
2024/02/14 04:57:55;;;;;;;15.30;6.50;;;;;;;-13.40;75.79;100161.91;4970788;28;20097;-59
2024/02/14 05:00:21;;;;;;;9.13;4.78;;;;;;;-13.43;75.55;100159.50;4972128;28;20534;-58
2024/02/14 05:02:47;;;;;;;11.48;5.00;;;;;;;-13.38;75.27;100156.72;4987278;28;20074;-59
2024/02/14 05:05:13;;;;;;;9.80;5.03;;;;;;;-13.48;74.95;100158.03;4987190;28;20145;-66
2024/02/14 05:07:52;;;;;;;9.15;5.10;;;;;;;-13.49;75.32;100162.31;4972273;28;20425;-61
2024/02/14 05:10:18;;;;;;;7.47;4.85;;;;;;;-13.45;74.37;100173.19;4984587;28;20034;-62
2024/02/14 05:12:44;;;;;;;12.00;5.68;;;;;;;-13.39;74.60;100171.19;4969963;28;20059;-56
2024/02/14 05:15:12;;;;;;;12.70;5.78;;;;;;;-13.28;74.50;100181.78;4972206;28;20038;-60
2024/02/14 05:17:38;;;;;;;12.98;5.95;;;;;;;-13.33;75.37;100176.03;4972130;28;20496;-58
2024/02/14 05:20:08;;;;;;;15.52;6.28;;;;;;;-13.31;74.50;100181.09;4972359;28;20043;-60
2024/02/14 05:22:37;;;;;;;15.25;7.20;;;;;;;-13.25;73.34;100188.47;4970895;28;20049;-59
2024/02/14 05:25:04;;;;;;;13.73;6.13;;;;;;;-13.28;74.35;100179.22;4972481;28;20042;-60
2024/02/14 05:27:33;;;;;;;17.98;4.88;;;;;;;-13.33;74.30;100186.25;4971460;28;20046;-60
2024/02/14 05:29:58;;;;;;;12.55;5.38;;;;;;;-13.22;74.74;100184.94;4974595;28;20051;-60
2024/02/14 05:32:24;;;;;;;7.25;4.93;;;;;;;-13.27;73.35;100185.16;4975602;28;20412;-60
2024/02/14 05:34:51;;;;;;;7.97;4.13;;;;;;;-13.30;73.21;100182.72;4975504;28;20043;-58
2024/02/14 05:37:18;;;;;;;5.13;3.60;;;;;;;-13.24;73.73;100196.91;4942249;28;20042;-58
2024/02/14 05:39:44;;;;;;;7.03;4.07;;;;;;;-13.17;72.99;100188.13;4973988;28;20035;-63
2024/02/14 05:42:09;;;;;;;11.02;5.60;;;;;;;-13.13;73.11;100192.19;4975102;28;20039;-62
2024/02/14 05:44:35;;;;;;;10.20;4.45;;;;;;;-13.10;73.85;100197.16;4974291;28;20043;-59
2024/02/14 05:47:01;;;;;;;10.60;5.70;;;;;;;-13.09;73.40;100198.78;4975339;28;20475;-61
2024/02/14 05:49:27;;;;;;;15.75;6.50;;;;;;;-13.01;73.70;100201.84;4974967;28;20043;-61
2024/02/14 05:51:53;;;;;;;11.65;5.32;;;;;;;-13.03;72.58;100198.53;4975149;28;20054;-60
2024/02/14 05:54:19;;;;;;;12.88;4.95;;;;;;;-12.99;73.50;100205.16;4975229;28;20050;-65
2024/02/14 05:56:47;;;;;;;8.20;4.25;;;;;;;-13.04;71.74;100205.34;4974746;28;20046;-60
2024/02/14 05:59:13;;;;;;;5.25;3.58;;;;;;;-13.02;72.60;100204.47;4940458;28;20066;-61
2024/02/14 06:01:39;;;;;;;11.32;5.22;;;;;;;-12.95;72.47;100214.31;4971232;28;20039;-60
2024/02/14 06:04:05;;;;;;;7.25;3.72;;;;;;;-12.96;72.76;100207.56;4974233;28;20516;-61
2024/02/14 06:06:30;;;;;;;8.68;4.72;;;;;;;-12.98;71.10;100217.03;4957224;28;20039;-61
2024/02/14 06:08:57;;;;;;;13.27;6.43;;;;;;;-12.87;71.56;100225.03;4980118;28;20046;-60
2024/02/14 06:11:23;;;;;;;8.65;4.78;;;;;;;-12.81;72.10;100219.66;5009446;28;20053;-58
2024/02/14 06:13:49;;;;;;;9.52;5.25;;;;;;;-12.80;72.25;100212.81;4992920;28;20046;-60
2024/02/14 06:16:15;;;;;;;7.10;4.55;;;;;;;-12.67;70.45;100223.31;4994268;28;20053;-62
2024/02/14 06:18:40;;;;;;;13.30;5.78;;;;;;;-12.64;71.82;100218.91;4976507;28;20582;-61
2024/02/14 06:21:06;;;;;;;11.65;6.00;;;;;;;-12.65;70.13;100222.34;4994017;28;20423;-58
2024/02/14 06:23:32;;;;;;;7.40;5.07;;;;;;;-12.57;71.09;100211.78;4992707;28;20053;-58
2024/02/14 06:26:01;;;;;;;10.77;4.35;;;;;;;-12.65;71.07;100216.41;4975409;28;20034;-61
2024/02/14 06:28:28;;;;;;;16.70;6.95;;;;;;;-12.47;69.81;100217.28;4989246;28;20054;-58
2024/02/14 06:30:55;;;;;;;9.30;5.15;;;;;;;-12.46;70.40;100214.66;4989037;28;20038;-57
2024/02/14 06:33:21;;;;;;;9.57;4.32;;;;;;;-12.48;69.42;100220.75;4991931;28;20053;-59
2024/02/14 06:35:47;;;;;;;11.10;5.03;;;;;;;-12.45;70.49;100223.97;4993342;28;20050;-59
2024/02/14 06:38:13;;;;;;;13.15;6.43;;;;;;;-12.33;69.83;100227.69;4993887;28;20138;-58
2024/02/14 06:40:41;;;;;;;9.20;5.18;;;;;;;-12.28;69.20;100225.75;4992031;28;20041;-59
2024/02/14 06:43:07;;;;;;;7.85;5.55;;;;;;;-12.17;69.47;100230.38;4975901;28;20047;-57
2024/02/14 06:45:33;;;;;;;10.75;6.03;;;;;;;-12.10;68.65;100230.91;4991664;28;20049;-54
2024/02/14 06:48:21;;;;;;;6.28;4.00;;;;;;;-12.08;68.64;100229.94;4978716;28;20134;-60
2024/02/14 06:50:47;;;;;;;10.48;4.50;;;;;;;-12.04;69.12;100234.00;4992014;28;20104;-59
2024/02/14 06:53:13;;;;;;;5.20;3.65;;;;;;;-12.02;68.71;100236.50;4991980;28;20038;-57
2024/02/14 06:55:39;;;;;;;12.15;6.13;;;;;;;-11.92;68.55;100224.91;5008362;28;20037;-61
2024/02/14 06:58:04;;;;;;;9.30;5.30;;;;;;;-11.75;68.22;100229.19;4993321;28;20053;-61
2024/02/14 07:00:30;;;;;;;11.80;6.88;;;;;;;-11.67;67.35;100227.91;5008318;28;20070;-60
2024/02/14 07:02:56;;;;;;;12.20;6.05;;;;;;;-11.75;67.99;100224.06;4993376;28;20101;-60
2024/02/14 07:05:22;;;;;;;11.90;5.60;;;;;;;-11.77;67.86;100228.41;4992677;28;20050;-61
2024/02/14 07:07:47;;;;;;;10.10;6.50;;;;;;;-11.73;68.16;100235.88;4991709;28;20046;-60
2024/02/14 07:10:13;;;;;;;9.50;5.25;;;;;;;-11.64;67.79;100237.16;4992852;28;20069;-60
2024/02/14 07:12:39;;;;;;;11.40;5.50;;;;;;;-11.63;67.85;100243.91;4993040;28;20411;-59
2024/02/14 07:15:05;;;;;;;6.45;4.38;;;;;;;-11.49;67.13;100240.69;4992875;28;20042;-60
2024/02/14 07:17:34;;;;;;;9.02;5.30;;;;;;;-11.41;66.81;100238.59;4992348;28;20484;-58
2024/02/14 07:20:00;;;;;;;7.18;3.60;;;;;;;-11.35;66.74;100237.41;4991487;28;20041;-61
2024/02/14 07:22:26;;;;;;;9.05;5.47;;;;;;;-11.22;66.37;100235.91;4992678;28;20464;-60
2024/02/14 07:24:53;;;;;;;10.70;5.78;;;;;;;-11.15;66.28;100236.41;4992643;28;20421;-61
2024/02/14 07:27:20;;;;;;;8.40;5.32;;;;;;;-11.03;65.88;100240.91;4991240;28;20042;-60
2024/02/14 07:29:46;;;;;;;9.93;6.10;;;;;;;-10.93;65.87;100246.41;4991262;28;20070;-59
2024/02/14 07:32:12;;;;;;;14.57;5.95;;;;;;;-11.02;66.07;100245.97;4991132;28;20069;-60
2024/02/14 07:34:40;;;;;;;9.93;6.80;;;;;;;-10.88;64.99;100236.72;4992719;28;20518;-61
2024/02/14 07:37:06;;;;;;;10.82;5.68;;;;;;;-10.85;65.38;100246.81;4971489;28;20097;-59
2024/02/14 07:39:34;;;;;;;11.10;4.95;;;;;;;-10.82;65.04;100246.69;4986700;28;20038;-59
2024/02/14 07:42:03;;;;;;;12.07;5.63;;;;;;;-10.75;65.09;100245.44;4990694;28;20038;-61
2024/02/14 07:44:31;;;;;;;14.32;6.50;;;;;;;-10.64;64.80;100245.69;4991054;28;20044;-59
2024/02/14 07:46:57;;;;;;;9.63;5.40;;;;;;;-10.52;64.96;100241.66;4988210;28;20050;-61
2024/02/14 07:49:23;;;;;;;18.52;6.95;;;;;;;-10.39;64.89;100255.44;4988783;28;20046;-60
2024/02/14 07:51:48;;;;;;;10.10;5.90;;;;;;;-10.46;64.51;100250.75;4987639;28;20035;-62
2024/02/14 07:54:14;;;;;;;15.40;7.22;;;;;;;-10.28;64.42;100249.75;4985153;28;20043;-62
2024/02/14 07:56:40;;;;;;;20.75;9.07;;;;;;;-10.34;63.96;100245.78;4985139;28;20046;-61
2024/02/14 07:59:05;;;;;;;14.27;7.90;;;;;;;-10.43;64.07;100248.84;4970852;28;20527;-63
2024/02/14 08:01:32;;;;;;;13.77;8.18;;;;;;;-10.33;64.27;100250.00;4970679;28;20109;-61
2024/02/14 08:03:58;;;;;;;12.98;6.95;;;;;;;-10.20;63.65;100244.19;4968732;28;20070;-62
2024/02/14 08:06:24;;;;;;;15.23;7.25;;;;;;;-10.02;63.73;100263.69;4969296;28;20180;-61
2024/02/14 08:08:53;;;;;;;11.43;6.70;;;;;;;-9.86;63.23;100263.66;4975491;28;20225;-62
2024/02/14 08:11:20;;;;;;;14.60;7.47;;;;;;;-9.78;62.92;100258.91;4992140;28;20424;-61
2024/02/14 08:13:46;;;;;;;11.52;6.15;;;;;;;-9.81;62.53;100265.97;5006845;28;20133;-61
2024/02/14 08:16:12;;;;;;;8.40;5.05;;;;;;;-9.87;63.01;100272.25;4974349;28;20619;-62
2024/02/14 08:18:39;;;;;;;9.63;5.18;;;;;;;-9.88;63.25;100265.47;4991980;28;20412;-63
2024/02/14 08:21:06;;;;;;;11.15;6.07;;;;;;;-9.76;62.36;100271.66;4974837;28;20093;-62
2024/02/14 08:23:34;;;;;;;12.93;6.07;;;;;;;-9.63;62.43;100258.03;4991833;28;20501;-62
2024/02/14 08:26:00;;;;;;;8.90;5.25;;;;;;;-9.54;61.15;100271.28;4991660;28;20049;-60
2024/02/14 08:28:27;;;;;;;10.05;5.38;;;;;;;-9.50;61.97;100270.19;4990148;28;20046;-61
2024/02/14 08:30:52;;;;;;;12.02;5.97;;;;;;;-9.53;61.77;100260.09;4991471;28;20043;-60
2024/02/14 08:33:18;;;;;;;13.02;6.40;;;;;;;-9.42;61.98;100271.38;4991709;28;20042;-61
2024/02/14 08:35:44;;;;;;;14.82;4.75;;;;;;;-9.53;61.63;100268.59;4991666;28;20404;-63
2024/02/14 08:38:09;;;;;;;8.82;4.93;;;;;;;-9.40;62.45;100261.06;5006602;28;20060;-60
2024/02/14 08:40:36;;;;;;;10.02;5.95;;;;;;;-9.42;61.23;100268.81;4990176;28;20097;-62
2024/02/14 08:43:02;;;;;;;12.98;6.38;;;;;;;-9.32;62.63;100265.72;4989966;28;20515;-61
2024/02/14 08:45:30;;;;;;;10.57;6.03;;;;;;;-9.17;61.79;100262.28;4991782;28;20073;-62
2024/02/14 08:47:55;;;;;;;10.43;5.15;;;;;;;-9.09;61.50;100272.09;4973789;28;20109;-61
2024/02/14 08:50:21;;;;;;;13.45;6.53;;;;;;;-9.11;60.60;100272.19;4991284;28;20038;-61
2024/02/14 08:52:47;;;;;;;10.23;5.72;;;;;;;-9.08;61.12;100273.75;4991378;28;20052;-61
2024/02/14 08:55:17;;;;;;;16.38;7.15;;;;;;;-9.08;60.92;100266.88;4991629;28;20117;-66
2024/02/14 08:57:44;;;;;;;12.30;7.40;;;;;;;-9.01;61.45;100268.16;4991470;28;20046;-65
2024/02/14 09:00:14;;;;;;;13.32;6.63;;;;;;;-8.89;60.97;100269.16;4990060;28;20459;-65
2024/02/14 09:02:41;;;;;;;12.05;5.95;;;;;;;-8.88;61.13;100277.69;5007857;28;20050;-64
2024/02/14 09:05:09;;;;;;;16.27;6.88;;;;;;;-8.79;61.03;100272.84;4994896;28;20046;-63
2024/02/14 09:07:36;;;;;;;12.65;6.82;;;;;;;-8.82;61.71;100274.75;5009942;28;20053;-66
2024/02/14 09:10:03;;;;;;;14.10;6.43;;;;;;;-8.80;61.12;100276.31;4994945;28;20550;-65
2024/02/14 09:12:30;;;;;;;12.82;6.10;;;;;;;-8.56;60.32;100275.75;4994924;28;20043;-63
2024/02/14 09:14:57;;;;;;;11.43;6.05;;;;;;;-8.50;59.88;100275.38;4995187;28;20050;-65
2024/02/14 09:17:23;;;;;;;14.82;6.45;;;;;;;-8.49;60.15;100275.31;4993513;28;20108;-63
2024/02/14 09:19:49;;;;;;;11.40;5.97;;;;;;;-8.44;59.93;100284.47;4993520;28;20085;-65
2024/02/14 09:22:21;;;;;;;14.80;6.45;;;;;;;-8.44;59.94;100290.47;5009453;28;20054;-64
2024/02/14 09:24:48;;;;;;;16.38;6.70;;;;;;;-8.36;59.14;100280.47;4978063;28;20036;-65
2024/02/14 09:27:14;;;;;;;17.05;8.40;;;;;;;-8.18;60.33;100267.41;4993518;28;20046;-65
2024/02/14 09:29:40;;;;;;;10.02;5.78;;;;;;;-8.10;58.95;100291.72;4993338;28;20416;-64
2024/02/14 09:32:05;;;;;;;9.93;5.50;;;;;;;-8.17;59.76;100274.22;4994522;28;20050;-65
2024/02/14 09:34:31;;;;;;;18.55;7.53;;;;;;;-8.09;59.31;100289.97;4993281;28;20041;-64
2024/02/14 09:36:58;;;;;;;14.23;7.03;;;;;;;-7.87;59.34;100281.75;4994601;28;20047;-63
2024/02/14 09:39:25;;;;;;;11.48;5.63;;;;;;;-7.94;58.97;100289.03;4994486;28;20038;-65
2024/02/14 09:42:02;;;;;;;9.73;5.90;;;;;;;-7.93;59.52;100282.13;4993402;28;20042;-65
2024/02/14 09:44:31;;;;;;;11.32;5.80;;;;;;;-7.86;59.33;100283.38;4994672;28;20080;-63
2024/02/14 09:46:56;;;;;;;14.25;7.30;;;;;;;-7.67;58.71;100281.28;4994146;28;20057;-64
2024/02/14 09:49:23;;;;;;;10.82;6.22;;;;;;;-7.51;58.39;100286.28;4992938;28;20042;-65
2024/02/14 09:51:49;;;;;;;24.67;7.25;;;;;;;-7.56;58.37;100285.72;4993055;28;20042;-66
2024/02/14 09:54:17;;;;;;;17.23;6.72;;;;;;;-7.55;58.29;100287.41;5009378;28;20053;-62
2024/02/14 09:56:53;;;;;;;12.82;6.65;;;;;;;-7.66;58.43;100279.53;4977189;28;20068;-64
2024/02/14 09:59:21;;;;;;;17.00;7.57;;;;;;;-7.64;58.99;100275.13;4993288;28;20412;-65
2024/02/14 10:01:49;;;;;;;19.92;7.47;;;;;;;-7.61;58.21;100291.19;4993039;28;20043;-64
2024/02/14 10:04:15;;;;;;;13.35;7.18;;;;;;;-7.46;59.21;100291.13;4994038;28;20060;-65
2024/02/14 10:06:41;;;;;;;12.20;6.63;;;;;;;-7.45;58.18;100279.91;4992748;28;20039;-65
2024/02/14 10:09:07;;;;;;;14.13;7.30;;;;;;;-7.29;57.42;100290.84;4994178;28;20046;-67
2024/02/14 10:11:35;;;;;;;11.05;6.68;;;;;;;-7.30;56.88;100289.19;4992911;28;20043;-63
2024/02/14 10:14:03;;;;;;;12.93;6.35;;;;;;;-7.43;57.68;100288.34;4993841;28;20478;-65
2024/02/14 10:16:29;;;;;;;16.50;6.63;;;;;;;-7.44;57.70;100289.25;4993771;28;20100;-64
2024/02/14 10:18:56;;;;;;;9.65;5.97;;;;;;;-7.25;57.62;100289.72;4994066;28;20188;-65
2024/02/14 10:21:22;;;;;;;16.13;6.30;;;;;;;-7.10;57.43;100296.44;5008771;28;20504;-64
2024/02/14 10:23:52;;;;;;;14.48;7.25;;;;;;;-7.11;57.39;100287.06;4993769;28;20053;-64
2024/02/14 10:26:18;;;;;;;20.95;7.88;;;;;;;-7.01;58.01;100281.28;5008750;28;20053;-65
2024/02/14 10:28:44;;;;;;;9.90;5.47;;;;;;;-7.04;57.11;100292.63;4983982;28;20558;-63
2024/02/14 10:31:10;;;;;;;14.38;6.97;;;;;;;-6.93;56.84;100287.56;4984538;28;20134;-63
2024/02/14 10:33:36;;;;;;;10.00;5.85;;;;;;;-6.99;56.75;100288.00;4993789;28;20095;-63
2024/02/14 10:36:03;;;;;;;12.70;7.57;;;;;;;-7.00;58.07;100285.50;4992168;28;20038;-64
2024/02/14 10:38:32;;;;;;;10.43;5.80;;;;;;;-6.91;56.99;100288.31;4976247;28;20496;-64
2024/02/14 10:41:00;;;;;;;11.27;6.28;;;;;;;-6.86;57.09;100285.41;4993305;28;20050;-63
2024/02/14 10:43:26;;;;;;;13.15;7.03;;;;;;;-6.75;57.43;100282.09;4993847;28;20047;-63
2024/02/14 10:45:56;;;;;;;12.88;7.03;;;;;;;-6.64;56.60;100279.63;5008571;28;20049;-59
2024/02/14 10:48:25;;;;;;;;;;;;;;;-6.75;57.21;100289.84;4944376;28;20053;-61
2024/02/14 10:50:55;;;;;;;12.15;5.85;;;;;;;-6.72;57.26;100287.88;4972406;28;19968;-61
2024/02/14 10:53:22;;;;;;;18.95;8.45;;;;;;;-6.51;57.22;100287.34;4972821;28;20073;-64
2024/02/14 10:55:49;;;;;;;11.05;6.20;;;;;;;-6.60;56.93;100286.22;4984678;28;20046;-63
2024/02/14 10:58:19;;;;;;;10.75;5.90;;;;;;;-6.76;57.82;100281.28;4991459;28;20046;-62
2024/02/14 11:00:46;;;;;;;11.20;6.57;;;;;;;-6.77;57.32;100289.94;4975757;28;20046;-62
2024/02/14 11:03:15;;;;;;;14.68;6.32;;;;;;;-6.70;57.59;100287.78;4975602;28;20070;-62
2024/02/14 11:05:49;;;;;;;14.18;7.00;;;;;;;-6.50;57.78;100294.13;4992557;28;20066;-62
2024/02/14 11:08:25;;;;;;;12.27;5.88;;;;;;;-6.54;56.95;100288.38;4992901;28;20054;-63
2024/02/14 11:10:58;;;;;;;11.13;5.35;;;;;;;-6.66;56.88;100273.75;4999259;28;20050;-61
2024/02/14 11:13:29;;;;;;;12.93;6.93;;;;;;;-6.63;58.03;100289.00;4992384;28;20047;-63
2024/02/14 11:15:55;;;;;;;13.82;5.32;;;;;;;-6.64;57.56;100293.34;4989496;28;20488;-60
2024/02/14 11:18:30;;;;;;;9.82;5.63;;;;;;;-6.59;57.57;100287.84;5005282;28;20455;-63